sensor_id;sensor_type;location;lat;lon;timestamp;pressure;altitude;pressure_sealevel;temperature;humidity
56912;BME280;42800;53.928;27.662;2023-05-14T00:00:40;99518.66;;;13.89;100.00
56912;BME280;42800;53.928;27.662;2023-05-14T00:03:06;99500.41;;;13.74;100.00
56912;BME280;42800;53.928;27.662;2023-05-14T00:05:32;99530.75;;;13.78;100.00
56912;BME280;42800;53.928;27.662;2023-05-14T00:07:58;99520.50;;;13.78;100.00
56912;BME280;42800;53.928;27.662;2023-05-14T00:10:25;99520.53;;;13.82;100.00
56912;BME280;42800;53.928;27.662;2023-05-14T00:12:51;99521.38;;;13.86;100.00
56912;BME280;42800;53.928;27.662;2023-05-14T00:15:18;99527.25;;;13.84;100.00
56912;BME280;42800;53.928;27.662;2023-05-14T00:17:44;99545.88;;;13.95;100.00
56912;BME280;42800;53.928;27.662;2023-05-14T00:20:11;99539.19;;;13.96;100.00
56912;BME280;42800;53.928;27.662;2023-05-14T00:22:37;99493.31;;;13.73;100.00
56912;BME280;42800;53.928;27.662;2023-05-14T00:25:05;99524.13;;;13.86;100.00
56912;BME280;42800;53.928;27.662;2023-05-14T00:27:31;99505.91;;;13.74;100.00
56912;BME280;42800;53.928;27.662;2023-05-14T00:29:57;99522.50;;;13.81;100.00
56912;BME280;42800;53.928;27.662;2023-05-14T00:32:23;99529.22;;;13.84;100.00
56912;BME280;42800;53.928;27.662;2023-05-14T00:34:49;99513.44;;;13.81;100.00
56912;BME280;42800;53.928;27.662;2023-05-14T00:37:15;99497.59;;;13.71;100.00
56912;BME280;42800;53.928;27.662;2023-05-14T00:39:41;99512.84;;;13.61;100.00
56912;BME280;42800;53.928;27.662;2023-05-14T00:42:07;99490.69;;;13.50;100.00
56912;BME280;42800;53.928;27.662;2023-05-14T00:44:33;99459.50;;;13.42;100.00
56912;BME280;42800;53.928;27.662;2023-05-14T00:46:59;99431.91;;;13.05;100.00
56912;BME280;42800;53.928;27.662;2023-05-14T00:49:25;99436.41;;;13.17;100.00
56912;BME280;42800;53.928;27.662;2023-05-14T00:51:53;99414.09;;;12.95;100.00
56912;BME280;42800;53.928;27.662;2023-05-14T00:54:19;99397.56;;;12.92;100.00
56912;BME280;42800;53.928;27.662;2023-05-14T00:56:46;99404.19;;;12.87;100.00
56912;BME280;42800;53.928;27.662;2023-05-14T00:59:12;99423.41;;;12.84;100.00
56912;BME280;42800;53.928;27.662;2023-05-14T01:01:38;99433.63;;;12.83;100.00
56912;BME280;42800;53.928;27.662;2023-05-14T01:04:05;99426.13;;;12.80;100.00
56912;BME280;42800;53.928;27.662;2023-05-14T01:06:38;99419.34;;;12.74;100.00
56912;BME280;42800;53.928;27.662;2023-05-14T01:09:13;99414.16;;;12.69;100.00
56912;BME280;42800;53.928;27.662;2023-05-14T01:11:52;99414.22;;;12.72;100.00
56912;BME280;42800;53.928;27.662;2023-05-14T01:14:24;99402.19;;;12.54;100.00
56912;BME280;42800;53.928;27.662;2023-05-14T01:16:57;99389.28;;;12.58;100.00
56912;BME280;42800;53.928;27.662;2023-05-14T01:19:32;99379.66;;;12.45;100.00
56912;BME280;42800;53.928;27.662;2023-05-14T01:22:00;99331.91;;;12.27;100.00
56912;BME280;42800;53.928;27.662;2023-05-14T01:24:26;99318.91;;;12.23;100.00
56912;BME280;42800;53.928;27.662;2023-05-14T01:26:52;99319.22;;;12.18;100.00
56912;BME280;42800;53.928;27.662;2023-05-14T01:29:22;99327.09;;;12.20;100.00
56912;BME280;42800;53.928;27.662;2023-05-14T01:31:49;99328.59;;;12.14;100.00
56912;BME280;42800;53.928;27.662;2023-05-14T01:34:19;99311.25;;;12.10;100.00
56912;BME280;42800;53.928;27.662;2023-05-14T01:36:46;99314.69;;;12.03;100.00
56912;BME280;42800;53.928;27.662;2023-05-14T01:39:14;99296.56;;;11.98;100.00
56912;BME280;42800;53.928;27.662;2023-05-14T01:41:40;99257.16;;;11.87;100.00
56912;BME280;42800;53.928;27.662;2023-05-14T01:44:07;99268.38;;;11.78;100.00
56912;BME280;42800;53.928;27.662;2023-05-14T01:46:33;99288.19;;;11.88;100.00
56912;BME280;42800;53.928;27.662;2023-05-14T01:48:59;99283.91;;;11.90;100.00
56912;BME280;42800;53.928;27.662;2023-05-14T01:51:25;99253.81;;;11.74;100.00
56912;BME280;42800;53.928;27.662;2023-05-14T01:53:51;99251.50;;;11.76;100.00
56912;BME280;42800;53.928;27.662;2023-05-14T01:56:19;99271.25;;;11.86;100.00
56912;BME280;42800;53.928;27.662;2023-05-14T01:58:46;99251.44;;;11.73;100.00
56912;BME280;42800;53.928;27.662;2023-05-14T02:01:12;99252.63;;;11.75;100.00
56912;BME280;42800;53.928;27.662;2023-05-14T02:03:37;99291.41;;;11.70;100.00
56912;BME280;42800;53.928;27.662;2023-05-14T02:06:04;99244.69;;;11.67;100.00
56912;BME280;42800;53.928;27.662;2023-05-14T02:08:29;99216.22;;;11.52;100.00
56912;BME280;42800;53.928;27.662;2023-05-14T02:10:55;99278.28;;;11.83;100.00
56912;BME280;42800;53.928;27.662;2023-05-14T02:13:22;99253.50;;;11.80;100.00
56912;BME280;42800;53.928;27.662;2023-05-14T02:15:48;99287.44;;;11.91;100.00
56912;BME280;42800;53.928;27.662;2023-05-14T02:18:14;99250.75;;;11.80;100.00
56912;BME280;42800;53.928;27.662;2023-05-14T02:20:41;99278.03;;;11.92;100.00
56912;BME280;42800;53.928;27.662;2023-05-14T02:23:07;99299.22;;;11.91;100.00
56912;BME280;42800;53.928;27.662;2023-05-14T02:25:33;99268.16;;;11.87;100.00
56912;BME280;42800;53.928;27.662;2023-05-14T02:27:59;99305.94;;;11.94;100.00
56912;BME280;42800;53.928;27.662;2023-05-14T02:30:25;99293.53;;;11.81;100.00
56912;BME280;42800;53.928;27.662;2023-05-14T02:32:51;99313.00;;;11.95;100.00
56912;BME280;42800;53.928;27.662;2023-05-14T02:35:17;99330.06;;;12.08;100.00
56912;BME280;42800;53.928;27.662;2023-05-14T02:37:43;99345.13;;;12.17;100.00
56912;BME280;42800;53.928;27.662;2023-05-14T02:40:09;99346.34;;;12.20;100.00
56912;BME280;42800;53.928;27.662;2023-05-14T02:42:35;99355.56;;;12.35;100.00
56912;BME280;42800;53.928;27.662;2023-05-14T02:45:01;99300.41;;;12.20;100.00
56912;BME280;42800;53.928;27.662;2023-05-14T02:47:28;99363.19;;;12.79;100.00
56912;BME280;42800;53.928;27.662;2023-05-14T02:49:54;99413.94;;;13.15;100.00
56912;BME280;42800;53.928;27.662;2023-05-14T02:52:20;99464.34;;;13.53;100.00
56912;BME280;42800;53.928;27.662;2023-05-14T02:54:45;99459.66;;;13.94;100.00
56912;BME280;42800;53.928;27.662;2023-05-14T02:57:11;99513.84;;;14.20;100.00
56912;BME280;42800;53.928;27.662;2023-05-14T02:59:37;99540.47;;;14.50;100.00
56912;BME280;42800;53.928;27.662;2023-05-14T03:02:04;99540.94;;;14.59;100.00
56912;BME280;42800;53.928;27.662;2023-05-14T03:04:30;99573.63;;;15.05;100.00
56912;BME280;42800;53.928;27.662;2023-05-14T03:06:56;99593.47;;;15.28;100.00
56912;BME280;42800;53.928;27.662;2023-05-14T03:09:22;99590.59;;;15.76;100.00
56912;BME280;42800;53.928;27.662;2023-05-14T03:11:49;99614.00;;;16.11;100.00
56912;BME280;42800;53.928;27.662;2023-05-14T03:14:15;99610.03;;;16.09;100.00
56912;BME280;42800;53.928;27.662;2023-05-14T03:16:41;99631.47;;;16.62;100.00
56912;BME280;42800;53.928;27.662;2023-05-14T03:19:06;99640.19;;;16.60;99.51
56912;BME280;42800;53.928;27.662;2023-05-14T03:21:34;99633.09;;;17.09;100.00
56912;BME280;42800;53.928;27.662;2023-05-14T03:24:00;99636.59;;;17.31;97.31
56912;BME280;42800;53.928;27.662;2023-05-14T03:26:26;99635.75;;;17.59;96.27
56912;BME280;42800;53.928;27.662;2023-05-14T03:28:52;99663.38;;;17.92;88.57
56912;BME280;42800;53.928;27.662;2023-05-14T03:31:18;99659.00;;;18.01;87.52
56912;BME280;42800;53.928;27.662;2023-05-14T03:33:44;99664.88;;;18.14;84.14
56912;BME280;42800;53.928;27.662;2023-05-14T03:36:10;99665.88;;;18.49;80.47
56912;BME280;42800;53.928;27.662;2023-05-14T03:38:36;99670.38;;;18.88;83.61
56912;BME280;42800;53.928;27.662;2023-05-14T03:41:02;99658.91;;;19.31;84.14
56912;BME280;42800;53.928;27.662;2023-05-14T03:43:28;99650.00;;;19.46;81.31
56912;BME280;42800;53.928;27.662;2023-05-14T03:45:54;99665.69;;;19.67;81.13
56912;BME280;42800;53.928;27.662;2023-05-14T03:48:20;99649.75;;;19.71;89.63
56912;BME280;42800;53.928;27.662;2023-05-14T03:50:46;99671.34;;;20.25;77.48
56912;BME280;42800;53.928;27.662;2023-05-14T03:53:12;99677.25;;;20.31;78.80
56912;BME280;42800;53.928;27.662;2023-05-14T03:55:39;99669.34;;;19.95;79.96
56912;BME280;42800;53.928;27.662;2023-05-14T03:58:05;99674.13;;;20.56;76.80
56912;BME280;42800;53.928;27.662;2023-05-14T04:00:35;99678.75;;;21.17;73.34
56912;BME280;42800;53.928;27.662;2023-05-14T04:03:01;99688.44;;;21.55;67.96
56912;BME280;42800;53.928;27.662;2023-05-14T04:05:27;99676.25;;;21.22;73.81
56912;BME280;42800;53.928;27.662;2023-05-14T04:07:52;99685.31;;;21.30;71.36
56912;BME280;42800;53.928;27.662;2023-05-14T04:10:19;99692.81;;;21.33;72.94
56912;BME280;42800;53.928;27.662;2023-05-14T04:12:45;99681.19;;;20.64;75.32
56912;BME280;42800;53.928;27.662;2023-05-14T04:15:11;99683.00;;;21.48;71.60
56912;BME280;42800;53.928;27.662;2023-05-14T04:17:37;99694.75;;;21.59;69.00
56912;BME280;42800;53.928;27.662;2023-05-14T04:20:04;99700.66;;;21.42;68.60
56912;BME280;42800;53.928;27.662;2023-05-14T04:22:30;99706.59;;;22.27;66.78
56912;BME280;42800;53.928;27.662;2023-05-14T04:24:56;99708.69;;;22.43;65.07
56912;BME280;42800;53.928;27.662;2023-05-14T04:27:22;99705.19;;;22.55;65.67
56912;BME280;42800;53.928;27.662;2023-05-14T04:29:49;99713.31;;;22.49;64.01
56912;BME280;42800;53.928;27.662;2023-05-14T04:32:15;99715.84;;;23.29;61.78
56912;BME280;42800;53.928;27.662;2023-05-14T04:34:42;99722.78;;;22.36;62.49
56912;BME280;42800;53.928;27.662;2023-05-14T04:37:08;99708.88;;;22.32;63.30
56912;BME280;42800;53.928;27.662;2023-05-14T04:39:34;99712.28;;;22.96;62.08
56912;BME280;42800;53.928;27.662;2023-05-14T04:42:00;99712.09;;;23.19;61.04
56912;BME280;42800;53.928;27.662;2023-05-14T04:44:26;99718.28;;;22.94;60.40
56912;BME280;42800;53.928;27.662;2023-05-14T04:46:52;99722.28;;;23.59;60.29
56912;BME280;42800;53.928;27.662;2023-05-14T04:49:18;99719.81;;;23.77;59.29
56912;BME280;42800;53.928;27.662;2023-05-14T04:51:45;99715.56;;;24.14;58.43
56912;BME280;42800;53.928;27.662;2023-05-14T04:54:11;99717.28;;;24.25;59.33
56912;BME280;42800;53.928;27.662;2023-05-14T04:56:37;99714.00;;;24.55;58.57
56912;BME280;42800;53.928;27.662;2023-05-14T04:59:03;99712.66;;;24.60;56.65
56912;BME280;42800;53.928;27.662;2023-05-14T05:01:29;99708.59;;;24.48;58.16
56912;BME280;42800;53.928;27.662;2023-05-14T05:03:55;99720.50;;;24.91;55.12
56912;BME280;42800;53.928;27.662;2023-05-14T05:06:22;99720.91;;;25.40;54.99
56912;BME280;42800;53.928;27.662;2023-05-14T05:08:47;99721.03;;;25.37;55.68
56912;BME280;42800;53.928;27.662;2023-05-14T05:11:13;99724.50;;;25.41;54.67
56912;BME280;42800;53.928;27.662;2023-05-14T05:13:39;99719.47;;;25.83;53.80
56912;BME280;42800;53.928;27.662;2023-05-14T05:16:06;99719.34;;;25.87;54.79
56912;BME280;42800;53.928;27.662;2023-05-14T05:18:32;99718.44;;;25.77;53.38
56912;BME280;42800;53.928;27.662;2023-05-14T05:20:58;99718.94;;;25.63;52.15
56912;BME280;42800;53.928;27.662;2023-05-14T05:23:25;99717.50;;;25.58;53.13
56912;BME280;42800;53.928;27.662;2023-05-14T05:25:50;99720.03;;;24.92;53.35
56912;BME280;42800;53.928;27.662;2023-05-14T05:28:16;99721.94;;;26.03;54.05
56912;BME280;42800;53.928;27.662;2023-05-14T05:30:42;99720.94;;;26.72;52.18
56912;BME280;42800;53.928;27.662;2023-05-14T05:33:09;99721.47;;;26.80;51.42
56912;BME280;42800;53.928;27.662;2023-05-14T05:35:36;99714.34;;;25.91;50.51
56912;BME280;42800;53.928;27.662;2023-05-14T05:38:03;99715.06;;;25.47;52.93
56912;BME280;42800;53.928;27.662;2023-05-14T05:40:29;99719.44;;;26.49;50.71
56912;BME280;42800;53.928;27.662;2023-05-14T05:42:55;99712.13;;;26.92;50.76
56912;BME280;42800;53.928;27.662;2023-05-14T05:45:21;99717.22;;;25.65;50.97
56912;BME280;42800;53.928;27.662;2023-05-14T05:47:47;99716.94;;;26.51;50.21
56912;BME280;42800;53.928;27.662;2023-05-14T05:50:13;99715.94;;;25.57;50.63
56912;BME280;42800;53.928;27.662;2023-05-14T05:52:39;99715.94;;;25.57;51.73
56912;BME280;42800;53.928;27.662;2023-05-14T05:55:06;99710.28;;;26.58;50.54
56912;BME280;42800;53.928;27.662;2023-05-14T05:57:33;99715.03;;;25.60;50.40
56912;BME280;42800;53.928;27.662;2023-05-14T05:59:58;99711.13;;;26.77;49.39
56912;BME280;42800;53.928;27.662;2023-05-14T06:02:25;99707.75;;;27.40;48.85
56912;BME280;42800;53.928;27.662;2023-05-14T06:04:51;99710.41;;;27.44;49.06
56912;BME280;42800;53.928;27.662;2023-05-14T06:07:17;99719.38;;;27.79;46.93
56912;BME280;42800;53.928;27.662;2023-05-14T06:09:43;99714.81;;;27.73;47.24
56912;BME280;42800;53.928;27.662;2023-05-14T06:12:09;99710.72;;;28.10;47.09
56912;BME280;42800;53.928;27.662;2023-05-14T06:14:35;99716.03;;;27.72;46.66
56912;BME280;42800;53.928;27.662;2023-05-14T06:17:01;99715.09;;;28.11;46.28
56912;BME280;42800;53.928;27.662;2023-05-14T06:19:27;99721.22;;;28.01;45.51
56912;BME280;42800;53.928;27.662;2023-05-14T06:21:53;99710.00;;;28.52;45.87
56912;BME280;42800;53.928;27.662;2023-05-14T06:24:19;99709.66;;;28.69;45.84
56912;BME280;42800;53.928;27.662;2023-05-14T06:26:45;99710.91;;;28.68;46.08
56912;BME280;42800;53.928;27.662;2023-05-14T06:29:13;99714.41;;;27.15;46.79
56912;BME280;42800;53.928;27.662;2023-05-14T06:31:39;99709.19;;;28.09;46.33
56912;BME280;42800;53.928;27.662;2023-05-14T06:34:05;99714.16;;;28.75;45.13
56912;BME280;42800;53.928;27.662;2023-05-14T06:36:31;99708.09;;;28.68;45.20
56912;BME280;42800;53.928;27.662;2023-05-14T06:38:57;99711.66;;;28.26;45.29
56912;BME280;42800;53.928;27.662;2023-05-14T06:41:23;99701.34;;;28.98;44.92
56912;BME280;42800;53.928;27.662;2023-05-14T06:43:49;99707.16;;;29.28;43.77
56912;BME280;42800;53.928;27.662;2023-05-14T06:46:15;99706.97;;;29.55;44.83
56912;BME280;42800;53.928;27.662;2023-05-14T06:48:42;99697.59;;;29.73;45.62
56912;BME280;42800;53.928;27.662;2023-05-14T06:51:08;99699.19;;;30.04;44.98
56912;BME280;42800;53.928;27.662;2023-05-14T06:53:35;99692.09;;;28.98;44.55
56912;BME280;42800;53.928;27.662;2023-05-14T06:56:01;99694.38;;;28.84;45.41
56912;BME280;42800;53.928;27.662;2023-05-14T06:58:26;99695.38;;;28.11;45.03
56912;BME280;42800;53.928;27.662;2023-05-14T07:00:52;99714.75;;;28.37;45.39
56912;BME280;42800;53.928;27.662;2023-05-14T07:03:19;99701.56;;;29.19;44.69
56912;BME280;42800;53.928;27.662;2023-05-14T07:05:46;99706.94;;;29.41;43.72
56912;BME280;42800;53.928;27.662;2023-05-14T07:08:12;99700.34;;;29.20;43.69
56912;BME280;42800;53.928;27.662;2023-05-14T07:10:38;99700.16;;;28.90;43.88
56912;BME280;42800;53.928;27.662;2023-05-14T07:13:04;99704.53;;;28.91;43.06
56912;BME280;42800;53.928;27.662;2023-05-14T07:15:30;99703.50;;;28.19;43.28
56912;BME280;42800;53.928;27.662;2023-05-14T07:17:56;99704.38;;;28.52;43.67
56912;BME280;42800;53.928;27.662;2023-05-14T07:20:23;99702.44;;;27.42;43.49
56912;BME280;42800;53.928;27.662;2023-05-14T07:22:49;99706.63;;;28.39;43.13
56912;BME280;42800;53.928;27.662;2023-05-14T07:25:15;99703.72;;;28.67;43.72
56912;BME280;42800;53.928;27.662;2023-05-14T07:27:41;99708.25;;;28.03;44.12
56912;BME280;42800;53.928;27.662;2023-05-14T07:30:08;99698.78;;;28.43;42.83
56912;BME280;42800;53.928;27.662;2023-05-14T07:32:34;99703.53;;;27.63;43.14
56912;BME280;42800;53.928;27.662;2023-05-14T07:35:00;99699.97;;;28.60;42.96
56912;BME280;42800;53.928;27.662;2023-05-14T07:37:26;99709.72;;;29.26;42.85
56912;BME280;42800;53.928;27.662;2023-05-14T07:39:52;99700.38;;;28.77;42.38
56912;BME280;42800;53.928;27.662;2023-05-14T07:42:18;99703.44;;;29.22;42.23
56912;BME280;42800;53.928;27.662;2023-05-14T07:44:44;99700.09;;;27.50;43.01
56912;BME280;42800;53.928;27.662;2023-05-14T07:47:11;99691.34;;;28.97;42.57
56912;BME280;42800;53.928;27.662;2023-05-14T07:49:36;99688.50;;;28.97;42.43
56912;BME280;42800;53.928;27.662;2023-05-14T07:52:03;99684.97;;;29.84;42.57
56912;BME280;42800;53.928;27.662;2023-05-14T07:54:29;99686.59;;;29.13;41.33
56912;BME280;42800;53.928;27.662;2023-05-14T07:56:55;99680.00;;;29.93;42.29
56912;BME280;42800;53.928;27.662;2023-05-14T07:59:21;99683.94;;;30.76;41.50
56912;BME280;42800;53.928;27.662;2023-05-14T08:01:47;99680.06;;;29.69;41.18
56912;BME280;42800;53.928;27.662;2023-05-14T08:04:13;99673.66;;;30.13;42.46
56912;BME280;42800;53.928;27.662;2023-05-14T08:06:40;99678.84;;;28.56;42.09
56912;BME280;42800;53.928;27.662;2023-05-14T08:09:06;99674.44;;;29.84;41.94
56912;BME280;42800;53.928;27.662;2023-05-14T08:11:33;99673.28;;;29.04;42.51
56912;BME280;42800;53.928;27.662;2023-05-14T08:13:59;99672.97;;;29.02;42.83
56912;BME280;42800;53.928;27.662;2023-05-14T08:16:25;99674.44;;;27.85;42.52
56912;BME280;42800;53.928;27.662;2023-05-14T08:18:51;99667.97;;;29.06;43.06
56912;BME280;42800;53.928;27.662;2023-05-14T08:21:17;99671.81;;;29.57;41.92
56912;BME280;42800;53.928;27.662;2023-05-14T08:23:43;99671.44;;;28.92;41.78
56912;BME280;42800;53.928;27.662;2023-05-14T08:26:09;99660.22;;;30.08;41.48
56912;BME280;42800;53.928;27.662;2023-05-14T08:28:36;99663.94;;;29.99;40.58
56912;BME280;42800;53.928;27.662;2023-05-14T08:31:02;99661.38;;;30.01;41.74
56912;BME280;42800;53.928;27.662;2023-05-14T08:33:28;99659.66;;;30.84;40.32
56912;BME280;42800;53.928;27.662;2023-05-14T08:35:54;99657.13;;;30.36;40.82
56912;BME280;42800;53.928;27.662;2023-05-14T08:38:20;99654.66;;;30.93;40.53
56912;BME280;42800;53.928;27.662;2023-05-14T08:40:47;99660.81;;;30.27;41.83
56912;BME280;42800;53.928;27.662;2023-05-14T08:43:15;99656.09;;;30.54;41.05
56912;BME280;42800;53.928;27.662;2023-05-14T08:45:45;99647.81;;;31.00;40.19
56912;BME280;42800;53.928;27.662;2023-05-14T08:48:15;99641.66;;;29.63;41.24
56912;BME280;42800;53.928;27.662;2023-05-14T08:50:42;99646.94;;;30.44;40.06
56912;BME280;42800;53.928;27.662;2023-05-14T08:53:08;99645.31;;;29.93;40.76
56912;BME280;42800;53.928;27.662;2023-05-14T08:55:36;99646.34;;;29.66;40.75
56912;BME280;42800;53.928;27.662;2023-05-14T08:58:02;99641.78;;;28.39;41.93
56912;BME280;42800;53.928;27.662;2023-05-14T09:00:28;99639.66;;;28.58;42.02
56912;BME280;42800;53.928;27.662;2023-05-14T09:02:56;99646.34;;;28.18;41.78
56912;BME280;42800;53.928;27.662;2023-05-14T09:05:22;99642.28;;;28.19;41.95
56912;BME280;42800;53.928;27.662;2023-05-14T09:07:48;99633.75;;;27.86;42.21
56912;BME280;42800;53.928;27.662;2023-05-14T09:10:15;99625.03;;;29.41;42.67
56912;BME280;42800;53.928;27.662;2023-05-14T09:12:41;99628.69;;;28.84;42.13
56912;BME280;42800;53.928;27.662;2023-05-14T09:15:08;99630.25;;;28.85;42.19
56912;BME280;42800;53.928;27.662;2023-05-14T09:17:34;99630.88;;;29.76;42.16
56912;BME280;42800;53.928;27.662;2023-05-14T09:20:01;99624.38;;;29.22;42.11
56912;BME280;42800;53.928;27.662;2023-05-14T09:22:28;99622.69;;;28.91;42.41
56912;BME280;42800;53.928;27.662;2023-05-14T09:25:03;99623.22;;;29.52;42.72
56912;BME280;42800;53.928;27.662;2023-05-14T09:27:30;99629.25;;;28.22;42.53
56912;BME280;42800;53.928;27.662;2023-05-14T09:30:04;99614.00;;;28.80;42.50
56912;BME280;42800;53.928;27.662;2023-05-14T09:32:33;99610.06;;;29.11;41.82
56912;BME280;42800;53.928;27.662;2023-05-14T09:35:08;99611.63;;;28.54;42.74
56912;BME280;42800;53.928;27.662;2023-05-14T09:37:35;99608.03;;;29.65;42.23
56912;BME280;42800;53.928;27.662;2023-05-14T09:40:05;99604.63;;;28.98;41.44
56912;BME280;42800;53.928;27.662;2023-05-14T09:42:31;99601.34;;;30.07;41.30
56912;BME280;42800;53.928;27.662;2023-05-14T09:44:57;99600.94;;;30.64;42.36
56912;BME280;42800;53.928;27.662;2023-05-14T09:47:23;99597.41;;;31.04;41.04
56912;BME280;42800;53.928;27.662;2023-05-14T09:49:49;99602.34;;;31.30;40.87
56912;BME280;42800;53.928;27.662;2023-05-14T09:52:18;99598.66;;;29.44;40.75
56912;BME280;42800;53.928;27.662;2023-05-14T09:54:45;99591.00;;;30.18;40.43
56912;BME280;42800;53.928;27.662;2023-05-14T09:57:11;99586.69;;;28.86;41.91
56912;BME280;42800;53.928;27.662;2023-05-14T09:59:37;99596.97;;;29.37;41.69
56912;BME280;42800;53.928;27.662;2023-05-14T10:02:04;99592.50;;;29.45;42.07
56912;BME280;42800;53.928;27.662;2023-05-14T10:04:32;99580.94;;;29.58;41.98
56912;BME280;42800;53.928;27.662;2023-05-14T10:06:59;99580.28;;;30.08;41.85
56912;BME280;42800;53.928;27.662;2023-05-14T10:09:26;99589.94;;;30.16;41.67
56912;BME280;42800;53.928;27.662;2023-05-14T10:11:57;99584.81;;;30.50;41.86
56912;BME280;42800;53.928;27.662;2023-05-14T10:14:30;99585.44;;;30.94;41.18
56912;BME280;42800;53.928;27.662;2023-05-14T10:16:58;99592.84;;;30.92;40.46
56912;BME280;42800;53.928;27.662;2023-05-14T10:19:25;99584.75;;;30.14;40.03
56912;BME280;42800;53.928;27.662;2023-05-14T10:21:55;99572.78;;;30.55;40.32
56912;BME280;42800;53.928;27.662;2023-05-14T10:24:22;99580.28;;;29.63;40.27
56912;BME280;42800;53.928;27.662;2023-05-14T10:26:49;99581.25;;;30.05;39.53
56912;BME280;42800;53.928;27.662;2023-05-14T10:29:16;99575.00;;;29.56;40.23
56912;BME280;42800;53.928;27.662;2023-05-14T10:31:46;99575.22;;;29.82;39.86
56912;BME280;42800;53.928;27.662;2023-05-14T10:34:33;99562.06;;;28.29;41.27
56912;BME280;42800;53.928;27.662;2023-05-14T10:37:02;99558.31;;;29.43;40.87
56912;BME280;42800;53.928;27.662;2023-05-14T10:39:42;99555.88;;;28.73;40.90
56912;BME280;42800;53.928;27.662;2023-05-14T10:42:10;99550.41;;;28.94;40.82
56912;BME280;42800;53.928;27.662;2023-05-14T10:44:46;99550.78;;;28.63;42.05
56912;BME280;42800;53.928;27.662;2023-05-14T10:47:12;99548.25;;;28.65;42.29
56912;BME280;42800;53.928;27.662;2023-05-14T10:49:39;99545.03;;;29.73;42.33
56912;BME280;42800;53.928;27.662;2023-05-14T10:52:07;99543.00;;;29.35;40.90
56912;BME280;42800;53.928;27.662;2023-05-14T10:54:34;99533.91;;;28.77;41.63
56912;BME280;42800;53.928;27.662;2023-05-14T10:57:00;99536.72;;;28.53;42.15
56912;BME280;42800;53.928;27.662;2023-05-14T10:59:27;99531.50;;;28.28;42.51
56912;BME280;42800;53.928;27.662;2023-05-14T11:01:53;99537.00;;;27.89;43.49
56912;BME280;42800;53.928;27.662;2023-05-14T11:04:22;99528.94;;;27.45;43.36
56912;BME280;42800;53.928;27.662;2023-05-14T11:06:48;99528.34;;;27.41;44.22
56912;BME280;42800;53.928;27.662;2023-05-14T11:09:16;99522.63;;;26.49;43.84
56912;BME280;42800;53.928;27.662;2023-05-14T11:11:42;99519.53;;;26.65;43.96
56912;BME280;42800;53.928;27.662;2023-05-14T11:14:08;99512.38;;;26.15;45.15
56912;BME280;42800;53.928;27.662;2023-05-14T11:16:35;99517.34;;;26.11;45.01
56912;BME280;42800;53.928;27.662;2023-05-14T11:19:03;99510.66;;;26.17;44.88
56912;BME280;42800;53.928;27.662;2023-05-14T11:21:29;99510.19;;;26.10;43.72
56912;BME280;42800;53.928;27.662;2023-05-14T11:23:58;99508.53;;;25.90;44.32
56912;BME280;42800;53.928;27.662;2023-05-14T11:26:24;99508.78;;;26.14;44.30
56912;BME280;42800;53.928;27.662;2023-05-14T11:28:50;99504.66;;;25.97;44.48
56912;BME280;42800;53.928;27.662;2023-05-14T11:31:16;99506.16;;;26.29;45.13
56912;BME280;42800;53.928;27.662;2023-05-14T11:33:43;99511.50;;;25.65;44.59
56912;BME280;42800;53.928;27.662;2023-05-14T11:36:09;99503.34;;;26.29;44.10
56912;BME280;42800;53.928;27.662;2023-05-14T11:38:45;99497.13;;;26.34;44.36
56912;BME280;42800;53.928;27.662;2023-05-14T11:41:13;99494.03;;;26.41;44.07
56912;BME280;42800;53.928;27.662;2023-05-14T11:43:39;99494.44;;;26.21;43.62
56912;BME280;42800;53.928;27.662;2023-05-14T11:46:05;99486.56;;;25.98;43.39
56912;BME280;42800;53.928;27.662;2023-05-14T11:48:31;99492.38;;;26.03;43.52
56912;BME280;42800;53.928;27.662;2023-05-14T11:50:58;99495.03;;;26.07;44.25
56912;BME280;42800;53.928;27.662;2023-05-14T11:53:25;99478.63;;;26.05;43.43
56912;BME280;42800;53.928;27.662;2023-05-14T11:55:51;99483.03;;;26.16;43.24
56912;BME280;42800;53.928;27.662;2023-05-14T11:58:18;99487.81;;;25.97;44.54
56912;BME280;42800;53.928;27.662;2023-05-14T12:00:45;99480.69;;;25.52;44.09
56912;BME280;42800;53.928;27.662;2023-05-14T12:03:11;99474.88;;;25.02;44.65
56912;BME280;42800;53.928;27.662;2023-05-14T12:05:37;99483.13;;;25.63;44.25
56912;BME280;42800;53.928;27.662;2023-05-14T12:08:18;99477.47;;;24.75;44.78
56912;BME280;42800;53.928;27.662;2023-05-14T12:10:44;99473.00;;;24.42;45.09
56912;BME280;42800;53.928;27.662;2023-05-14T12:13:14;99463.28;;;24.91;44.74
56912;BME280;42800;53.928;27.662;2023-05-14T12:15:40;99469.38;;;24.89;45.09
56912;BME280;42800;53.928;27.662;2023-05-14T12:18:08;99462.34;;;24.72;44.41
56912;BME280;42800;53.928;27.662;2023-05-14T12:20:34;99460.47;;;25.26;44.25
56912;BME280;42800;53.928;27.662;2023-05-14T12:23:00;99463.38;;;25.22;44.54
56912;BME280;42800;53.928;27.662;2023-05-14T12:25:28;99457.69;;;24.91;44.21
56912;BME280;42800;53.928;27.662;2023-05-14T12:27:54;99461.78;;;24.77;44.17
56912;BME280;42800;53.928;27.662;2023-05-14T12:30:19;99452.91;;;24.44;44.40
56912;BME280;42800;53.928;27.662;2023-05-14T12:32:45;99443.88;;;24.97;44.03
56912;BME280;42800;53.928;27.662;2023-05-14T12:35:13;99445.50;;;25.07;44.72
56912;BME280;42800;53.928;27.662;2023-05-14T12:37:38;99449.84;;;25.08;44.05
56912;BME280;42800;53.928;27.662;2023-05-14T12:40:05;99446.94;;;25.33;42.80
56912;BME280;42800;53.928;27.662;2023-05-14T12:42:34;99438.66;;;25.30;42.94
56912;BME280;42800;53.928;27.662;2023-05-14T12:45:00;99440.16;;;25.22;42.54